sensor_id;sensor_type;location;lat;lon;timestamp;P1;durP1;ratioP1;P2;durP2;ratioP2
60851;SDS011;48553;50.766;2.900;2022-07-03T00:00:12;1.90;;;0.70;;
60851;SDS011;48553;50.766;2.900;2022-07-03T00:03:12;1.75;;;0.65;;
60851;SDS011;48553;50.766;2.900;2022-07-03T00:06:13;3.28;;;0.70;;
60851;SDS011;48553;50.766;2.900;2022-07-03T00:09:14;4.10;;;0.82;;
60851;SDS011;48553;50.766;2.900;2022-07-03T00:12:14;4.07;;;1.00;;
60851;SDS011;48553;50.766;2.900;2022-07-03T00:15:15;3.63;;;0.70;;
60851;SDS011;48553;50.766;2.900;2022-07-03T00:18:16;1.73;;;0.70;;
60851;SDS011;48553;50.766;2.900;2022-07-03T00:21:17;2.03;;;0.85;;
60851;SDS011;48553;50.766;2.900;2022-07-03T00:24:23;2.75;;;1.00;;
60851;SDS011;48553;50.766;2.900;2022-07-03T00:27:26;2.45;;;0.80;;
60851;SDS011;48553;50.766;2.900;2022-07-03T00:30:28;2.78;;;0.95;;
60851;SDS011;48553;50.766;2.900;2022-07-03T00:33:31;2.10;;;0.70;;
60851;SDS011;48553;50.766;2.900;2022-07-03T00:36:34;3.25;;;1.08;;
60851;SDS011;48553;50.766;2.900;2022-07-03T00:39:37;2.67;;;1.00;;
60851;SDS011;48553;50.766;2.900;2022-07-03T00:42:39;2.72;;;0.70;;
60851;SDS011;48553;50.766;2.900;2022-07-03T00:45:40;2.05;;;0.90;;
60851;SDS011;48553;50.766;2.900;2022-07-03T00:48:47;2.42;;;0.90;;
60851;SDS011;48553;50.766;2.900;2022-07-03T00:51:52;2.42;;;1.00;;
60851;SDS011;48553;50.766;2.900;2022-07-03T00:54:57;3.55;;;1.00;;
60851;SDS011;48553;50.766;2.900;2022-07-03T00:57:59;1.45;;;0.70;;
60851;SDS011;48553;50.766;2.900;2022-07-03T01:01:01;2.55;;;0.80;;
60851;SDS011;48553;50.766;2.900;2022-07-03T01:04:17;2.80;;;1.00;;
60851;SDS011;48553;50.766;2.900;2022-07-03T01:10:37;2.00;;;0.90;;
60851;SDS011;48553;50.766;2.900;2022-07-03T01:21:16;3.10;;;1.02;;
60851;SDS011;48553;50.766;2.900;2022-07-03T01:30:53;2.83;;;0.93;;
60851;SDS011;48553;50.766;2.900;2022-07-03T01:33:54;1.48;;;0.80;;
60851;SDS011;48553;50.766;2.900;2022-07-03T01:36:54;3.20;;;0.90;;
60851;SDS011;48553;50.766;2.900;2022-07-03T01:40:00;3.28;;;1.17;;
60851;SDS011;48553;50.766;2.900;2022-07-03T01:43:05;1.92;;;1.10;;
60851;SDS011;48553;50.766;2.900;2022-07-03T01:46:08;2.33;;;1.10;;
60851;SDS011;48553;50.766;2.900;2022-07-03T01:49:13;3.33;;;1.02;;
60851;SDS011;48553;50.766;2.900;2022-07-03T01:52:14;4.57;;;1.33;;
60851;SDS011;48553;50.766;2.900;2022-07-03T01:55:16;4.13;;;1.15;;
60851;SDS011;48553;50.766;2.900;2022-07-03T01:58:18;2.50;;;1.20;;
60851;SDS011;48553;50.766;2.900;2022-07-03T02:01:22;1.60;;;1.00;;
60851;SDS011;48553;50.766;2.900;2022-07-03T02:20:03;3.05;;;1.30;;
60851;SDS011;48553;50.766;2.900;2022-07-03T02:23:07;2.88;;;1.13;;
60851;SDS011;48553;50.766;2.900;2022-07-03T02:26:08;3.85;;;1.20;;
60851;SDS011;48553;50.766;2.900;2022-07-03T02:29:12;2.30;;;1.00;;
60851;SDS011;48553;50.766;2.900;2022-07-03T02:32:19;3.00;;;1.20;;
60851;SDS011;48553;50.766;2.900;2022-07-03T02:35:26;3.70;;;1.30;;
60851;SDS011;48553;50.766;2.900;2022-07-03T02:38:31;2.08;;;1.20;;
60851;SDS011;48553;50.766;2.900;2022-07-03T02:41:45;2.72;;;1.27;;
60851;SDS011;48553;50.766;2.900;2022-07-03T02:44:50;2.67;;;1.38;;
60851;SDS011;48553;50.766;2.900;2022-07-03T02:48:16;3.42;;;1.30;;
60851;SDS011;48553;50.766;2.900;2022-07-03T02:51:22;2.20;;;1.20;;
60851;SDS011;48553;50.766;2.900;2022-07-03T02:54:38;3.22;;;1.20;;
60851;SDS011;48553;50.766;2.900;2022-07-03T02:57:51;3.15;;;1.30;;
60851;SDS011;48553;50.766;2.900;2022-07-03T03:01:20;2.53;;;1.20;;
60851;SDS011;48553;50.766;2.900;2022-07-03T03:04:31;3.25;;;1.48;;
60851;SDS011;48553;50.766;2.900;2022-07-03T03:11:11;2.08;;;1.30;;
60851;SDS011;48553;50.766;2.900;2022-07-03T03:14:19;3.78;;;1.27;;
60851;SDS011;48553;50.766;2.900;2022-07-03T03:17:23;6.40;;;1.38;;
60851;SDS011;48553;50.766;2.900;2022-07-03T03:20:27;4.03;;;1.30;;
60851;SDS011;48553;50.766;2.900;2022-07-03T03:26:51;2.90;;;1.10;;
60851;SDS011;48553;50.766;2.900;2022-07-03T03:29:51;2.53;;;1.20;;
60851;SDS011;48553;50.766;2.900;2022-07-03T03:32:52;2.58;;;1.33;;
60851;SDS011;48553;50.766;2.900;2022-07-03T03:35:52;2.75;;;1.15;;
60851;SDS011;48553;50.766;2.900;2022-07-03T03:38:53;2.47;;;1.10;;
60851;SDS011;48553;50.766;2.900;2022-07-03T03:41:53;2.65;;;1.08;;
60851;SDS011;48553;50.766;2.900;2022-07-03T03:44:54;3.17;;;1.30;;
60851;SDS011;48553;50.766;2.900;2022-07-03T03:47:54;1.58;;;1.00;;
60851;SDS011;48553;50.766;2.900;2022-07-03T03:50:55;2.55;;;1.23;;
60851;SDS011;48553;50.766;2.900;2022-07-03T03:53:56;2.78;;;1.00;;
60851;SDS011;48553;50.766;2.900;2022-07-03T03:56:57;3.30;;;1.23;;
60851;SDS011;48553;50.766;2.900;2022-07-03T04:00:14;3.45;;;1.30;;
60851;SDS011;48553;50.766;2.900;2022-07-03T04:03:15;2.17;;;1.30;;
60851;SDS011;48553;50.766;2.900;2022-07-03T04:06:15;2.15;;;0.90;;
60851;SDS011;48553;50.766;2.900;2022-07-03T04:09:15;3.67;;;1.08;;
60851;SDS011;48553;50.766;2.900;2022-07-03T04:12:16;2.35;;;1.10;;
60851;SDS011;48553;50.766;2.900;2022-07-03T04:15:16;2.50;;;1.17;;
60851;SDS011;48553;50.766;2.900;2022-07-03T04:18:17;4.18;;;1.30;;
60851;SDS011;48553;50.766;2.900;2022-07-03T04:21:18;3.75;;;1.30;;
60851;SDS011;48553;50.766;2.900;2022-07-03T04:24:18;3.67;;;1.20;;
60851;SDS011;48553;50.766;2.900;2022-07-03T04:27:19;3.70;;;1.40;;
60851;SDS011;48553;50.766;2.900;2022-07-03T04:30:19;2.85;;;1.23;;
60851;SDS011;48553;50.766;2.900;2022-07-03T04:33:20;2.47;;;1.23;;
60851;SDS011;48553;50.766;2.900;2022-07-03T04:36:20;4.63;;;1.48;;
60851;SDS011;48553;50.766;2.900;2022-07-03T04:39:21;3.50;;;1.40;;
60851;SDS011;48553;50.766;2.900;2022-07-03T04:42:21;3.90;;;1.20;;
60851;SDS011;48553;50.766;2.900;2022-07-03T04:45:21;2.72;;;1.40;;
60851;SDS011;48553;50.766;2.900;2022-07-03T04:48:22;2.70;;;1.20;;
60851;SDS011;48553;50.766;2.900;2022-07-03T04:51:22;3.30;;;1.25;;
60851;SDS011;48553;50.766;2.900;2022-07-03T04:54:23;3.83;;;1.33;;
60851;SDS011;48553;50.766;2.900;2022-07-03T04:57:23;3.20;;;1.27;;
60851;SDS011;48553;50.766;2.900;2022-07-03T05:00:24;2.90;;;1.50;;
60851;SDS011;48553;50.766;2.900;2022-07-03T05:03:24;2.20;;;1.30;;
60851;SDS011;48553;50.766;2.900;2022-07-03T05:06:25;4.80;;;1.30;;
60851;SDS011;48553;50.766;2.900;2022-07-03T05:09:25;2.70;;;1.20;;
60851;SDS011;48553;50.766;2.900;2022-07-03T05:12:26;4.57;;;1.30;;
60851;SDS011;48553;50.766;2.900;2022-07-03T05:15:27;2.72;;;1.30;;
60851;SDS011;48553;50.766;2.900;2022-07-03T05:18:27;2.85;;;1.23;;
60851;SDS011;48553;50.766;2.900;2022-07-03T05:21:27;2.42;;;1.20;;
60851;SDS011;48553;50.766;2.900;2022-07-03T05:24:29;3.50;;;1.38;;
60851;SDS011;48553;50.766;2.900;2022-07-03T05:27:30;1.80;;;1.20;;
60851;SDS011;48553;50.766;2.900;2022-07-03T05:30:31;3.22;;;1.25;;
60851;SDS011;48553;50.766;2.900;2022-07-03T05:33:35;2.60;;;1.27;;
60851;SDS011;48553;50.766;2.900;2022-07-03T05:36:38;3.17;;;1.48;;
60851;SDS011;48553;50.766;2.900;2022-07-03T05:39:38;1.90;;;1.10;;
60851;SDS011;48553;50.766;2.900;2022-07-03T05:42:38;4.22;;;1.52;;
60851;SDS011;48553;50.766;2.900;2022-07-03T05:45:39;3.47;;;1.55;;
60851;SDS011;48553;50.766;2.900;2022-07-03T05:48:39;4.15;;;1.52;;
60851;SDS011;48553;50.766;2.900;2022-07-03T05:51:40;4.00;;;1.27;;
60851;SDS011;48553;50.766;2.900;2022-07-03T05:54:40;3.58;;;1.20;;
60851;SDS011;48553;50.766;2.900;2022-07-03T05:57:41;4.13;;;1.38;;
60851;SDS011;48553;50.766;2.900;2022-07-03T06:00:41;2.90;;;1.60;;
60851;SDS011;48553;50.766;2.900;2022-07-03T06:03:43;4.90;;;2.05;;
60851;SDS011;48553;50.766;2.900;2022-07-03T06:06:44;4.90;;;1.80;;
60851;SDS011;48553;50.766;2.900;2022-07-03T06:09:44;4.95;;;2.60;;
60851;SDS011;48553;50.766;2.900;2022-07-03T06:12:44;4.88;;;2.70;;
60851;SDS011;48553;50.766;2.900;2022-07-03T06:15:45;5.85;;;3.50;;
60851;SDS011;48553;50.766;2.900;2022-07-03T06:18:46;9.10;;;3.45;;
60851;SDS011;48553;50.766;2.900;2022-07-03T06:21:48;5.40;;;3.03;;
60851;SDS011;48553;50.766;2.900;2022-07-03T06:24:48;5.75;;;3.22;;
60851;SDS011;48553;50.766;2.900;2022-07-03T06:27:48;7.70;;;3.70;;
60851;SDS011;48553;50.766;2.900;2022-07-03T06:30:49;10.40;;;3.38;;
60851;SDS011;48553;50.766;2.900;2022-07-03T06:33:49;6.18;;;3.42;;
60851;SDS011;48553;50.766;2.900;2022-07-03T06:36:50;7.15;;;3.40;;
60851;SDS011;48553;50.766;2.900;2022-07-03T06:39:50;6.82;;;3.15;;
60851;SDS011;48553;50.766;2.900;2022-07-03T06:42:50;6.13;;;2.88;;
60851;SDS011;48553;50.766;2.900;2022-07-03T06:45:51;7.15;;;2.97;;
60851;SDS011;48553;50.766;2.900;2022-07-03T06:48:51;6.80;;;3.38;;
60851;SDS011;48553;50.766;2.900;2022-07-03T06:51:52;7.35;;;3.30;;
60851;SDS011;48553;50.766;2.900;2022-07-03T06:54:52;5.60;;;3.00;;
60851;SDS011;48553;50.766;2.900;2022-07-03T06:57:52;6.28;;;3.30;;
60851;SDS011;48553;50.766;2.900;2022-07-03T07:00:53;6.63;;;3.15;;
60851;SDS011;48553;50.766;2.900;2022-07-03T07:03:53;5.05;;;2.88;;
60851;SDS011;48553;50.766;2.900;2022-07-03T07:06:54;7.18;;;3.13;;
60851;SDS011;48553;50.766;2.900;2022-07-03T07:09:54;5.57;;;2.78;;
60851;SDS011;48553;50.766;2.900;2022-07-03T07:12:55;7.47;;;2.58;;
60851;SDS011;48553;50.766;2.900;2022-07-03T07:15:55;5.13;;;2.17;;
60851;SDS011;48553;50.766;2.900;2022-07-03T07:18:55;6.82;;;2.15;;
60851;SDS011;48553;50.766;2.900;2022-07-03T07:21:56;4.50;;;1.60;;
60851;SDS011;48553;50.766;2.900;2022-07-03T07:24:56;3.75;;;1.38;;
60851;SDS011;48553;50.766;2.900;2022-07-03T07:27:57;3.22;;;1.30;;
60851;SDS011;48553;50.766;2.900;2022-07-03T07:30:57;4.53;;;1.40;;
60851;SDS011;48553;50.766;2.900;2022-07-03T07:33:57;3.70;;;1.30;;
60851;SDS011;48553;50.766;2.900;2022-07-03T07:36:58;4.28;;;1.02;;
60851;SDS011;48553;50.766;2.900;2022-07-03T07:39:58;3.45;;;0.90;;
60851;SDS011;48553;50.766;2.900;2022-07-03T07:42:59;5.22;;;1.00;;
60851;SDS011;48553;50.766;2.900;2022-07-03T07:45:59;2.72;;;0.75;;
60851;SDS011;48553;50.766;2.900;2022-07-03T07:49:00;2.47;;;0.80;;
60851;SDS011;48553;50.766;2.900;2022-07-03T07:52:00;3.05;;;0.90;;
60851;SDS011;48553;50.766;2.900;2022-07-03T07:55:01;5.63;;;0.80;;
60851;SDS011;48553;50.766;2.900;2022-07-03T07:58:01;3.35;;;0.75;;
60851;SDS011;48553;50.766;2.900;2022-07-03T08:01:02;1.70;;;0.88;;
60851;SDS011;48553;50.766;2.900;2022-07-03T08:04:21;4.10;;;1.00;;
60851;SDS011;48553;50.766;2.900;2022-07-03T08:07:40;3.20;;;0.90;;
60851;SDS011;48553;50.766;2.900;2022-07-03T08:13:44;4.88;;;0.70;;
60851;SDS011;48553;50.766;2.900;2022-07-03T08:16:46;2.83;;;0.63;;
60851;SDS011;48553;50.766;2.900;2022-07-03T08:19:46;8.32;;;1.08;;
60851;SDS011;48553;50.766;2.900;2022-07-03T08:22:47;4.32;;;0.85;;
60851;SDS011;48553;50.766;2.900;2022-07-03T08:25:47;2.53;;;0.70;;
60851;SDS011;48553;50.766;2.900;2022-07-03T08:28:47;2.25;;;0.63;;
60851;SDS011;48553;50.766;2.900;2022-07-03T08:31:48;2.10;;;0.68;;
60851;SDS011;48553;50.766;2.900;2022-07-03T08:34:48;3.30;;;0.43;;
60851;SDS011;48553;50.766;2.900;2022-07-03T08:37:49;3.40;;;0.63;;
60851;SDS011;48553;50.766;2.900;2022-07-03T08:40:50;2.28;;;0.52;;
60851;SDS011;48553;50.766;2.900;2022-07-03T08:43:51;3.58;;;0.65;;
60851;SDS011;48553;50.766;2.900;2022-07-03T08:46:52;1.77;;;0.60;;
60851;SDS011;48553;50.766;2.900;2022-07-03T08:49:56;2.15;;;0.50;;
60851;SDS011;48553;50.766;2.900;2022-07-03T08:52:56;2.70;;;0.60;;
60851;SDS011;48553;50.766;2.900;2022-07-03T08:55:58;2.58;;;0.50;;
60851;SDS011;48553;50.766;2.900;2022-07-03T08:59:01;2.28;;;0.45;;
60851;SDS011;48553;50.766;2.900;2022-07-03T09:02:05;1.60;;;0.47;;
60851;SDS011;48553;50.766;2.900;2022-07-03T09:05:06;1.15;;;0.47;;
60851;SDS011;48553;50.766;2.900;2022-07-03T09:08:08;3.05;;;0.52;;
60851;SDS011;48553;50.766;2.900;2022-07-03T09:11:10;2.72;;;0.50;;
60851;SDS011;48553;50.766;2.900;2022-07-03T09:14:10;1.48;;;0.30;;
60851;SDS011;48553;50.766;2.900;2022-07-03T09:17:11;1.77;;;0.50;;
60851;SDS011;48553;50.766;2.900;2022-07-03T09:20:11;1.73;;;0.43;;
60851;SDS011;48553;50.766;2.900;2022-07-03T09:23:18;1.52;;;0.40;;
60851;SDS011;48553;50.766;2.900;2022-07-03T09:26:20;1.90;;;0.45;;
60851;SDS011;48553;50.766;2.900;2022-07-03T09:29:25;1.67;;;0.40;;
60851;SDS011;48553;50.766;2.900;2022-07-03T09:32:47;1.60;;;0.30;;
60851;SDS011;48553;50.766;2.900;2022-07-03T09:35:52;1.42;;;0.50;;
60851;SDS011;48553;50.766;2.900;2022-07-03T09:38:53;1.90;;;0.35;;
60851;SDS011;48553;50.766;2.900;2022-07-03T09:42:01;1.65;;;0.40;;
60851;SDS011;48553;50.766;2.900;2022-07-03T09:45:04;1.95;;;0.40;;
60851;SDS011;48553;50.766;2.900;2022-07-03T09:48:05;1.52;;;0.40;;
60851;SDS011;48553;50.766;2.900;2022-07-03T09:51:22;1.13;;;0.30;;
60851;SDS011;48553;50.766;2.900;2022-07-03T09:54:25;1.40;;;0.38;;
60851;SDS011;48553;50.766;2.900;2022-07-03T09:57:29;1.23;;;0.32;;
60851;SDS011;48553;50.766;2.900;2022-07-03T10:00:31;1.00;;;0.30;;
60851;SDS011;48553;50.766;2.900;2022-07-03T10:03:36;1.23;;;0.40;;
60851;SDS011;48553;50.766;2.900;2022-07-03T10:06:50;1.38;;;0.30;;
60851;SDS011;48553;50.766;2.900;2022-07-03T10:09:51;1.48;;;0.35;;
60851;SDS011;48553;50.766;2.900;2022-07-03T10:12:52;1.85;;;0.50;;
60851;SDS011;48553;50.766;2.900;2022-07-03T10:15:54;0.85;;;0.30;;
60851;SDS011;48553;50.766;2.900;2022-07-03T10:18:54;2.13;;;0.50;;
60851;SDS011;48553;50.766;2.900;2022-07-03T10:21:56;1.33;;;0.55;;
60851;SDS011;48553;50.766;2.900;2022-07-03T10:24:59;2.22;;;0.35;;
60851;SDS011;48553;50.766;2.900;2022-07-03T10:28:01;1.25;;;0.30;;
60851;SDS011;48553;50.766;2.900;2022-07-03T10:31:02;1.33;;;0.47;;
60851;SDS011;48553;50.766;2.900;2022-07-03T10:34:04;2.28;;;0.50;;
60851;SDS011;48553;50.766;2.900;2022-07-03T10:37:05;1.80;;;0.50;;
60851;SDS011;48553;50.766;2.900;2022-07-03T10:40:07;2.15;;;0.50;;
60851;SDS011;48553;50.766;2.900;2022-07-03T10:43:45;1.02;;;0.40;;
60851;SDS011;48553;50.766;2.900;2022-07-03T10:47:05;1.35;;;0.50;;
60851;SDS011;48553;50.766;2.900;2022-07-03T10:53:23;1.55;;;0.40;;
60851;SDS011;48553;50.766;2.900;2022-07-03T10:56:24;0.93;;;0.30;;
60851;SDS011;48553;50.766;2.900;2022-07-03T11:02:41;2.03;;;0.43;;
60851;SDS011;48553;50.766;2.900;2022-07-03T11:05:43;2.40;;;0.60;;
60851;SDS011;48553;50.766;2.900;2022-07-03T11:09:03;1.05;;;0.40;;
60851;SDS011;48553;50.766;2.900;2022-07-03T11:12:04;2.75;;;0.50;;
60851;SDS011;48553;50.766;2.900;2022-07-03T11:15:26;2.45;;;0.45;;
60851;SDS011;48553;50.766;2.900;2022-07-03T11:21:31;0.85;;;0.30;;
60851;SDS011;48553;50.766;2.900;2022-07-03T11:24:42;2.13;;;0.40;;
60851;SDS011;48553;50.766;2.900;2022-07-03T11:27:44;1.20;;;0.30;;
60851;SDS011;48553;50.766;2.900;2022-07-03T11:34:10;1.85;;;0.35;;
60851;SDS011;48553;50.766;2.900;2022-07-03T11:37:19;1.23;;;0.45;;
60851;SDS011;48553;50.766;2.900;2022-07-03T11:40:20;1.90;;;0.50;;
60851;SDS011;48553;50.766;2.900;2022-07-03T11:43:28;1.25;;;0.40;;
60851;SDS011;48553;50.766;2.900;2022-07-03T11:46:29;0.77;;;0.30;;
60851;SDS011;48553;50.766;2.900;2022-07-03T11:49:34;1.80;;;0.40;;
60851;SDS011;48553;50.766;2.900;2022-07-03T11:52:35;0.95;;;0.25;;
60851;SDS011;48553;50.766;2.900;2022-07-03T11:55:45;2.95;;;0.40;;
60851;SDS011;48553;50.766;2.900;2022-07-03T11:58:59;1.50;;;0.40;;
60851;SDS011;48553;50.766;2.900;2022-07-03T12:02:02;1.67;;;0.50;;
60851;SDS011;48553;50.766;2.900;2022-07-03T12:05:12;1.73;;;0.38;;
60851;SDS011;48553;50.766;2.900;2022-07-03T12:08:13;1.92;;;0.30;;
60851;SDS011;48553;50.766;2.900;2022-07-03T12:11:21;1.98;;;0.43;;
60851;SDS011;48553;50.766;2.900;2022-07-03T12:14:38;1.30;;;0.30;;
60851;SDS011;48553;50.766;2.900;2022-07-03T12:17:43;2.47;;;0.50;;
60851;SDS011;48553;50.766;2.900;2022-07-03T12:20:44;1.80;;;0.47;;
60851;SDS011;48553;50.766;2.900;2022-07-03T12:23:45;1.08;;;0.47;;
60851;SDS011;48553;50.766;2.900;2022-07-03T12:26:50;2.50;;;0.40;;
60851;SDS011;48553;50.766;2.900;2022-07-03T12:29:51;3.42;;;0.45;;
60851;SDS011;48553;50.766;2.900;2022-07-03T12:32:53;1.50;;;0.55;;
60851;SDS011;48553;50.766;2.900;2022-07-03T12:39:04;2.38;;;1.00;;
60851;SDS011;48553;50.766;2.900;2022-07-03T12:42:12;2.60;;;0.82;;
60851;SDS011;48553;50.766;2.900;2022-07-03T12:45:22;2.45;;;0.90;;
60851;SDS011;48553;50.766;2.900;2022-07-03T12:48:27;2.20;;;0.85;;
60851;SDS011;48553;50.766;2.900;2022-07-03T12:54:44;2.97;;;1.48;;
60851;SDS011;48553;50.766;2.900;2022-07-03T12:57:44;2.58;;;1.15;;
60851;SDS011;48553;50.766;2.900;2022-07-03T13:01:03;2.47;;;0.98;;
60851;SDS011;48553;50.766;2.900;2022-07-03T13:04:04;2.90;;;0.90;;
60851;SDS011;48553;50.766;2.900;2022-07-03T13:07:07;4.70;;;0.70;;
60851;SDS011;48553;50.766;2.900;2022-07-03T13:10:08;1.30;;;0.55;;
60851;SDS011;48553;50.766;2.900;2022-07-03T13:13:09;2.35;;;0.63;;
60851;SDS011;48553;50.766;2.900;2022-07-03T13:16:22;1.77;;;0.50;;
60851;SDS011;48553;50.766;2.900;2022-07-03T13:19:27;1.45;;;0.50;;
60851;SDS011;48553;50.766;2.900;2022-07-03T13:22:28;2.47;;;0.40;;
60851;SDS011;48553;50.766;2.900;2022-07-03T13:25:29;1.83;;;0.30;;
60851;SDS011;48553;50.766;2.900;2022-07-03T13:28:30;2.03;;;0.30;;
60851;SDS011;48553;50.766;2.900;2022-07-03T13:31:31;1.10;;;0.38;;
60851;SDS011;48553;50.766;2.900;2022-07-03T13:34:31;1.08;;;0.30;;
60851;SDS011;48553;50.766;2.900;2022-07-03T13:37:32;2.17;;;0.30;;
60851;SDS011;48553;50.766;2.900;2022-07-03T13:40:33;1.38;;;0.30;;
60851;SDS011;48553;50.766;2.900;2022-07-03T13:43:35;2.10;;;0.38;;
60851;SDS011;48553;50.766;2.900;2022-07-03T13:46:35;2.30;;;0.30;;
60851;SDS011;48553;50.766;2.900;2022-07-03T13:49:35;3.78;;;0.40;;
60851;SDS011;48553;50.766;2.900;2022-07-03T13:52:36;1.48;;;0.30;;
60851;SDS011;48553;50.766;2.900;2022-07-03T13:55:37;1.05;;;0.30;;
60851;SDS011;48553;50.766;2.900;2022-07-03T13:58:37;0.95;;;0.35;;
60851;SDS011;48553;50.766;2.900;2022-07-03T14:01:37;2.00;;;0.30;;
60851;SDS011;48553;50.766;2.900;2022-07-03T14:04:38;1.85;;;0.30;;
60851;SDS011;48553;50.766;2.900;2022-07-03T14:07:38;1.77;;;0.32;;
60851;SDS011;48553;50.766;2.900;2022-07-03T14:10:39;1.17;;;0.28;;
60851;SDS011;48553;50.766;2.900;2022-07-03T14:13:39;1.40;;;0.20;;
60851;SDS011;48553;50.766;2.900;2022-07-03T14:16:40;1.00;;;0.30;;
60851;SDS011;48553;50.766;2.900;2022-07-03T14:19:40;2.58;;;0.50;;
60851;SDS011;48553;50.766;2.900;2022-07-03T14:22:40;1.77;;;0.35;;
60851;SDS011;48553;50.766;2.900;2022-07-03T14:25:41;2.28;;;0.50;;
60851;SDS011;48553;50.766;2.900;2022-07-03T14:28:41;1.55;;;0.40;;
60851;SDS011;48553;50.766;2.900;2022-07-03T14:32:00;2.72;;;0.43;;
60851;SDS011;48553;50.766;2.900;2022-07-03T14:35:19;1.13;;;0.28;;
60851;SDS011;48553;50.766;2.900;2022-07-03T14:38:20;2.65;;;0.40;;
60851;SDS011;48553;50.766;2.900;2022-07-03T14:41:20;2.45;;;0.45;;
60851;SDS011;48553;50.766;2.900;2022-07-03T14:44:21;3.42;;;0.40;;
60851;SDS011;48553;50.766;2.900;2022-07-03T14:47:24;1.70;;;0.30;;
60851;SDS011;48553;50.766;2.900;2022-07-03T14:50:24;1.20;;;0.40;;
60851;SDS011;48553;50.766;2.900;2022-07-03T14:53:25;2.65;;;0.38;;
60851;SDS011;48553;50.766;2.900;2022-07-03T14:56:25;1.60;;;0.22;;
60851;SDS011;48553;50.766;2.900;2022-07-03T15:06:07;2.53;;;0.40;;
60851;SDS011;48553;50.766;2.900;2022-07-03T15:09:10;1.33;;;0.30;;
60851;SDS011;48553;50.766;2.900;2022-07-03T15:12:17;1.85;;;0.30;;
60851;SDS011;48553;50.766;2.900;2022-07-03T15:15:29;2.28;;;0.30;;
60851;SDS011;48553;50.766;2.900;2022-07-03T15:18:30;2.40;;;0.47;;
60851;SDS011;48553;50.766;2.900;2022-07-03T15:21:31;2.15;;;0.40;;
60851;SDS011;48553;50.766;2.900;2022-07-03T15:24:34;0.93;;;0.20;;
60851;SDS011;48553;50.766;2.900;2022-07-03T15:27:36;0.77;;;0.20;;
60851;SDS011;48553;50.766;2.900;2022-07-03T15:33:49;1.55;;;0.30;;
60851;SDS011;48553;50.766;2.900;2022-07-03T15:40:20;0.93;;;0.30;;
60851;SDS011;48553;50.766;2.900;2022-07-03T15:46:55;3.80;;;0.38;;
60851;SDS011;48553;50.766;2.900;2022-07-03T15:50:04;1.65;;;0.30;;
60851;SDS011;48553;50.766;2.900;2022-07-03T15:53:04;1.80;;;0.30;;
60851;SDS011;48553;50.766;2.900;2022-07-03T15:56:13;1.95;;;0.30;;
60851;SDS011;48553;50.766;2.900;2022-07-03T15:59:16;1.77;;;0.30;;
60851;SDS011;48553;50.766;2.900;2022-07-03T16:02:20;1.63;;;0.32;;
60851;SDS011;48553;50.766;2.900;2022-07-03T16:05:26;2.38;;;0.47;;
60851;SDS011;48553;50.766;2.900;2022-07-03T16:08:30;2.50;;;0.38;;
60851;SDS011;48553;50.766;2.900;2022-07-03T16:11:33;1.75;;;0.30;;
60851;SDS011;48553;50.766;2.900;2022-07-03T16:14:34;1.75;;;0.38;;
60851;SDS011;48553;50.766;2.900;2022-07-03T16:17:35;1.00;;;0.20;;
60851;SDS011;48553;50.766;2.900;2022-07-03T16:20:36;3.15;;;0.30;;
60851;SDS011;48553;50.766;2.900;2022-07-03T16:23:37;0.90;;;0.30;;
60851;SDS011;48553;50.766;2.900;2022-07-03T16:26:38;1.75;;;0.20;;
60851;SDS011;48553;50.766;2.900;2022-07-03T16:29:39;1.33;;;0.30;;
60851;SDS011;48553;50.766;2.900;2022-07-03T16:32:41;1.75;;;0.20;;
60851;SDS011;48553;50.766;2.900;2022-07-03T16:35:43;1.13;;;0.30;;
60851;SDS011;48553;50.766;2.900;2022-07-03T16:41:57;2.28;;;0.40;;
60851;SDS011;48553;50.766;2.900;2022-07-03T16:45:06;2.60;;;0.40;;
60851;SDS011;48553;50.766;2.900;2022-07-03T16:48:12;2.15;;;0.40;;
60851;SDS011;48553;50.766;2.900;2022-07-03T16:51:15;1.05;;;0.25;;
60851;SDS011;48553;50.766;2.900;2022-07-03T16:54:17;2.22;;;0.50;;
60851;SDS011;48553;50.766;2.900;2022-07-03T16:57:19;1.63;;;0.30;;
60851;SDS011;48553;50.766;2.900;2022-07-03T17:00:21;2.33;;;0.50;;
60851;SDS011;48553;50.766;2.900;2022-07-03T17:03:24;2.83;;;0.50;;
60851;SDS011;48553;50.766;2.900;2022-07-03T17:06:25;1.77;;;0.32;;
60851;SDS011;48553;50.766;2.900;2022-07-03T17:09:27;0.95;;;0.32;;
60851;SDS011;48553;50.766;2.900;2022-07-03T17:12:28;1.80;;;0.40;;
60851;SDS011;48553;50.766;2.900;2022-07-03T17:15:29;1.45;;;0.38;;
60851;SDS011;48553;50.766;2.900;2022-07-03T17:18:36;1.60;;;0.40;;
60851;SDS011;48553;50.766;2.900;2022-07-03T17:21:42;2.45;;;0.32;;
60851;SDS011;48553;50.766;2.900;2022-07-03T17:24:46;1.15;;;0.20;;
60851;SDS011;48553;50.766;2.900;2022-07-03T17:28:00;1.50;;;0.35;;
60851;SDS011;48553;50.766;2.900;2022-07-03T17:31:03;1.58;;;0.35;;
60851;SDS011;48553;50.766;2.900;2022-07-03T17:34:05;1.48;;;0.30;;
60851;SDS011;48553;50.766;2.900;2022-07-03T17:37:08;1.50;;;0.50;;
60851;SDS011;48553;50.766;2.900;2022-07-03T17:40:12;1.55;;;0.40;;
60851;SDS011;48553;50.766;2.900;2022-07-03T17:43:14;1.20;;;0.35;;
60851;SDS011;48553;50.766;2.900;2022-07-03T17:46:15;2.90;;;0.40;;
60851;SDS011;48553;50.766;2.900;2022-07-03T17:49:19;1.92;;;0.30;;
60851;SDS011;48553;50.766;2.900;2022-07-03T17:52:21;2.50;;;0.75;;
60851;SDS011;48553;50.766;2.900;2022-07-03T17:55:24;3.28;;;0.57;;
60851;SDS011;48553;50.766;2.900;2022-07-03T17:58:27;2.15;;;0.50;;
60851;SDS011;48553;50.766;2.900;2022-07-03T18:01:28;2.90;;;0.43;;
60851;SDS011;48553;50.766;2.900;2022-07-03T18:04:30;1.67;;;0.30;;
60851;SDS011;48553;50.766;2.900;2022-07-03T18:07:53;1.20;;;0.40;;
60851;SDS011;48553;50.766;2.900;2022-07-03T18:11:05;0.98;;;0.22;;
60851;SDS011;48553;50.766;2.900;2022-07-03T18:14:22;0.80;;;0.30;;
60851;SDS011;48553;50.766;2.900;2022-07-03T18:17:31;2.05;;;0.30;;
60851;SDS011;48553;50.766;2.900;2022-07-03T18:20:34;2.42;;;0.30;;
60851;SDS011;48553;50.766;2.900;2022-07-03T18:23:36;1.60;;;0.32;;
60851;SDS011;48553;50.766;2.900;2022-07-03T18:26:59;1.45;;;0.30;;
60851;SDS011;48553;50.766;2.900;2022-07-03T18:30:08;1.85;;;0.30;;
60851;SDS011;48553;50.766;2.900;2022-07-03T18:33:11;1.83;;;0.30;;
60851;SDS011;48553;50.766;2.900;2022-07-03T18:36:13;1.15;;;0.22;;
60851;SDS011;48553;50.766;2.900;2022-07-03T18:39:14;1.45;;;0.30;;
60851;SDS011;48553;50.766;2.900;2022-07-03T18:42:14;1.80;;;0.20;;
60851;SDS011;48553;50.766;2.900;2022-07-03T18:45:19;1.50;;;0.30;;
60851;SDS011;48553;50.766;2.900;2022-07-03T18:48:20;1.85;;;0.30;;
60851;SDS011;48553;50.766;2.900;2022-07-03T19:00:44;0.93;;;0.20;;
60851;SDS011;48553;50.766;2.900;2022-07-03T19:07:30;1.45;;;0.30;;
60851;SDS011;48553;50.766;2.900;2022-07-03T19:10:36;0.60;;;0.20;;
60851;SDS011;48553;50.766;2.900;2022-07-03T19:16:51;2.35;;;0.20;;
60851;SDS011;48553;50.766;2.900;2022-07-03T19:20:00;0.88;;;0.20;;
60851;SDS011;48553;50.766;2.900;2022-07-03T19:23:01;0.85;;;0.20;;
60851;SDS011;48553;50.766;2.900;2022-07-03T19:26:02;1.67;;;0.40;;
60851;SDS011;48553;50.766;2.900;2022-07-03T19:29:03;1.00;;;0.20;;
60851;SDS011;48553;50.766;2.900;2022-07-03T19:32:04;1.38;;;0.30;;
60851;SDS011;48553;50.766;2.900;2022-07-03T19:35:04;1.35;;;0.30;;
60851;SDS011;48553;50.766;2.900;2022-07-03T19:38:05;1.13;;;0.20;;
60851;SDS011;48553;50.766;2.900;2022-07-03T19:41:06;1.63;;;0.30;;
60851;SDS011;48553;50.766;2.900;2022-07-03T19:44:08;2.67;;;0.38;;
60851;SDS011;48553;50.766;2.900;2022-07-03T19:47:09;1.52;;;0.30;;
60851;SDS011;48553;50.766;2.900;2022-07-03T19:50:09;1.05;;;0.40;;
60851;SDS011;48553;50.766;2.900;2022-07-03T19:53:10;0.80;;;0.30;;
60851;SDS011;48553;50.766;2.900;2022-07-03T19:56:10;1.42;;;0.30;;
60851;SDS011;48553;50.766;2.900;2022-07-03T19:59:11;1.88;;;0.30;;
60851;SDS011;48553;50.766;2.900;2022-07-03T20:02:12;0.77;;;0.20;;